AirNav   Pilot Hours Calculator
 
 1165 users online  

T76 Rhome Meadows Airport
Rhome, Texas, USA

GOING TO RHOME?


FAA INFORMATION EFFECTIVE 20 MAY 2021

Location

FAA Identifier: T76
Lat/Long: 33-08-57.4320N 097-29-46.0860W
33-08.957200N 097-29.768100W
33.1492867,-97.4961350
(estimated)
Elevation: 900 ft. / 274 m (estimated)
Variation: 07E (1984)
From city: 6 miles N of RHOME, TX
Time zone: UTC -5 (UTC -6 during Standard Time)
Zip code: 76078

Airport Operations

Airport use: Open to the public
Activation date: 06/1984
Control tower: no
ARTCC: FORT WORTH CENTER
FSS: FORT WORTH FLIGHT SERVICE STATION
NOTAMs facility: FTW (NOTAM-D service available)
Attendance: UNATNDD
Wind indicator: no
Segmented circle: no

Airport Communications

CTAF: 122.9
WX AWOS-3 at LUD (8 nm NW): 118.225 (940-627-2365)
WX ASOS at AFW (13 nm SE): PHONE 817-491-6188
WX ASOS at DTO (15 nm E): 119.325 (940-383-8457)
WX AWOS-3 at XBP (17 nm W): 119.225 (940-683-8027)

Nearby radio navigation aids

VOR radial/distance  VOR name  Freq  Var
FUZr308/22.3RANGER VORTAC115.7006E
UKWr139/28.3BOWIE VORTAC117.1506E
TTTr300/28.4MAVERICK VOR/DME113.1006E
CVEr292/33.6COWBOY VOR/DME116.2006E
MQPr036/35.8MILLSAP VORTAC117.7009E

Airport Services

Runway Information

Runway 13/31

Dimensions: 3700 x 60 ft. / 1128 x 18 m
Surface: turf, in fair condition
RY 31 END SOFT WHEN WET.
RUNWAY 13  RUNWAY 31
Traffic pattern: right
RIGHT TRAFFIC FOR FIXED WING ACFT ONLY; REMAIN WEST OF THE RY.
right
RIGHT TRAFFIC FOR ULTRALIGHTS ONLY; REMAIN EAST OF THE RY.
Displaced threshold: 260 ft.
DSPLCD THLD MARKED WITH WHITE TIRES.
no
Obstructions: 4 ft. fence
APCH SLOPE 0:1 BASED ON DSPLCD THLD; 4 FT FENCE 51 FT R AT DSPLCD THLD.
4 ft. fence, 65 ft. left of centerline

Airport Ownership and Management from official FAA records

Ownership: Privately-owned
Owner: RHOME MEADOWS MANAGEMENT GROUP
P.O. BOX 560, NORTH RICHLAND HILLS
RHOME, TX 76078
Phone (940) 627-2494
Manager: ED GLINKSKY
2179 COUNTY ROAD 4421
RHOME, TX 76078
Phone (940) 627-2494
AMGR CELL 817-320-2024

Airport Operational Statistics

Aircraft based on the field: 13
Single engine airplanes: 11
Gliders airplanes: 1
Ultralights: 1
    
Aircraft operations: avg 63/week *
67% local general aviation
33% transient general aviation
* for 12-month period ending 30 December 2018

Additional Remarks

120 FT CELL TOWER 2000 FT WEST OF RY.
ALL ACFT MONITOR CTAF DUE TO THE CLOSE PROXIMITY TO HERITAGE CREEK AIRSTRIP.
FOR CD CTC REGIONAL APCH AT 972-615-2799.

Instrument Procedures

There are no published instrument procedures at T76.

Some nearby airports with instrument procedures:

KLUD - Decatur Municipal Airport (8 nm NW)
4T2 - Kenneth Copeland Airport (10 nm S)
KAFW - Fort Worth Alliance Airport (13 nm SE)
KDTO - Denton Enterprise Airport (15 nm E)
KXBP - Bridgeport Municipal Airport (17 nm W)
 
Loc | Ops | Rwys | IFR | FBO | Links
Com | Nav | Svcs | Stats | Notes

City of Fort Worth
 
Area around T76 (Rhome Meadows Airport)
 
Road maps at: MapQuest Bing Google
 
Aerial photo
No photo
 
Sectional chart

 
Airport distance calculator
Flying to Rhome Meadows Airport? Find the distance to fly.

From to T76

Sunrise and sunset
Times for 14-Jun-2021
 Local
(UTC-5)
 Zulu
(UTC)
Morning civil twilight05:5310:53
Sunrise06:2111:21
Sunset20:3901:39
Evening civil twilight21:0802:08

Current date and time
Zulu (UTC)  14-Jun-2021 22:56:29
Local (UTC-5)  14-Jun-2021 17:56:29
 
METAR
KLUD 
8nm NW 
118.22 940-927-2365
142235Z AUTO 04009KT 7SM CLR 33/22 A2999 RMK AO2 T03290218
KAFW 
14nm SE 
142153Z 05011KT 10SM FEW045 SCT070 SCT200 BKN300 36/22 A2994 RMK AO2 SLP121 CB DSNT SE-SW MOV SW TCU DSNT SE-SW T03560217
KDTO 
15nm E 
142153Z 02010KT 10SM CLR 33/24 A2996 RMK AO2 SLP135 T03330239
KXBP 
17nm W 
142235Z AUTO 04007KT 10SM CLR 34/22 A2999 RMK AO2 T03390218
TAF
KAFW 
14nm SE 
142109Z 1421/1518 05005KT P6SM VCTS SCT040CB FM142300 02004KT P6SM SCT180
NOTAMs
Click for the latest NOTAMs
NOTAMs are issued by the DoD/FAA and will open in a separate window not controlled by AirNav.

 

 
 

Would you like to see your business listed on this page?

 If your business provides an interesting product or service to pilots, flight crews, aircraft, or users of the Rhome Meadows Airport, you should consider listing it here.  To start the listing process, click on the button below
 
Add a business
 

Other Pages about Rhome Meadows Airport

Update a link
 
Copyright © AirNav, LLC. All rights reserved. Privacy Policy  Contact